Temp: 9.6°C   Baro: 1017.5mb
  Wind: 4.9mph   Dir: WSW (258°)
  Rain: 0.0mm (0.0mm/hr)
  Sun: 202W/m2  Humidity: 68%

Historic data

Bath Spa Weather Station Historical Data
Daily Summary for February 29, 2024 Units:  Both    English   Metric
Daily Weekly Monthly Yearly Custom
  High: Low: Average:
Temperature: 49.8 °F /  9.9 °C 37.3 °F /  2.9 °C 45.1 °F /  7.3 °C
Dew Point: 47.3 °F /  8.5 °C 33.8 °F /  1 °C 41.9 °F /  5.5 °C
Humidity: 95% 79% 89%
Wind Speed: 11.8mph /  19km/h - 4.2mph /  6.8km/h
Wind Gust: 22mph /  35.4km/h - -
Wind- - WSW
Pressure: 29.81 in /  1009.4 hPa 29.56 in /  1000.9 hPa -
Precipitation: 0.13 in /  3.3 mm    
Historical Graphs
 
 
Tabular Data for February 29, 2024
Time Temperature Dew Point Pressure Wind Wind Speed Wind Gust Humidity Rainfall Rate (Hourly) solar
00:09 49.8 °F /  9.9 °C 46.9 °F /  8.3 °C 29.81in /  1009.4hPa South 6mph /  9.7km/h 17mph /  27.4km/h 90% 0.00in /  0mm 0 W/m2
00:14 49.6 °F /  9.8 °C 46.8 °F /  8.2 °C 29.81in /  1009.4hPa SSW 5.9mph /  9.5km/h 10mph /  16.1km/h 90% 0.00in /  0mm 0 W/m2
00:19 49.6 °F /  9.8 °C 46.8 °F /  8.2 °C 29.80in /  1009hPa South 4.9mph /  7.9km/h 15mph /  24.1km/h 90% 0.00in /  0mm 0 W/m2
00:24 49.8 °F /  9.9 °C 46.9 °F /  8.3 °C 29.81in /  1009.4hPa SW 6.6mph /  10.6km/h 13mph /  20.9km/h 90% 0.00in /  0mm 0 W/m2
00:29 49.7 °F /  9.8 °C 46.8 °F /  8.2 °C 29.80in /  1009hPa SW 7.1mph /  11.4km/h 16mph /  25.7km/h 90% 0.00in /  0mm 0 W/m2
00:34 49.7 °F /  9.8 °C 46.9 °F /  8.3 °C 29.80in /  1009hPa SSW 7.4mph /  11.9km/h 18mph /  29km/h 90% 0.00in /  0mm 0 W/m2
00:39 49.8 °F /  9.9 °C 46.9 °F /  8.3 °C 29.80in /  1009hPa SW 7.8mph /  12.6km/h 18mph /  29km/h 90% 0.00in /  0mm 0 W/m2
00:44 49.8 °F /  9.9 °C 46.9 °F /  8.3 °C 29.80in /  1009hPa South 11.8mph /  19km/h 18mph /  29km/h 90% 0.00in /  0mm 0 W/m2
00:49 49.8 °F /  9.9 °C 46.9 °F /  8.3 °C 29.79in /  1008.7hPa SSW 7.8mph /  12.6km/h 14mph /  22.5km/h 90% 0.00in /  0mm 0 W/m2
00:54 49.8 °F /  9.9 °C 46.9 °F /  8.3 °C 29.79in /  1008.7hPa SSW 10.5mph /  16.9km/h 18mph /  29km/h 90% 0.00in /  0mm 0 W/m2
00:59 49.8 °F /  9.9 °C 46.9 °F /  8.3 °C 29.79in /  1008.7hPa SSW 11.4mph /  18.3km/h 22mph /  35.4km/h 90% 0.00in /  0mm 0 W/m2
01:04 49.8 °F /  9.9 °C 46.9 °F /  8.3 °C 29.79in /  1008.7hPa SSW 8.4mph /  13.5km/h 16mph /  25.7km/h 90% 0.00in /  0mm 0 W/m2
01:09 49.8 °F /  9.9 °C 46.9 °F /  8.3 °C 29.80in /  1009hPa SSW 7.5mph /  12.1km/h 20mph /  32.2km/h 90% 0.00in /  0mm 0 W/m2
01:14 49.8 °F /  9.9 °C 46.9 °F /  8.3 °C 29.79in /  1008.7hPa SSW 9.3mph /  15km/h 17mph /  27.4km/h 90% 0.00in /  0mm 0 W/m2
01:19 49.8 °F /  9.9 °C 46.9 °F /  8.3 °C 29.79in /  1008.7hPa SW 7.9mph /  12.7km/h 17mph /  27.4km/h 90% 0.00in /  0mm 0 W/m2
01:24 49.8 °F /  9.9 °C 47 °F /  8.3 °C 29.79in /  1008.7hPa SSW 9.2mph /  14.8km/h 17mph /  27.4km/h 90.2% 0.00in /  0mm 0 W/m2
01:29 49.8 °F /  9.9 °C 46.9 °F /  8.3 °C 29.79in /  1008.7hPa SSW 6.8mph /  10.9km/h 12mph /  19.3km/h 90% 0.00in /  0mm 0 W/m2
01:34 49.8 °F /  9.9 °C 47 °F /  8.3 °C 29.79in /  1008.7hPa SSW 7.4mph /  11.9km/h 13mph /  20.9km/h 90.2% 0.00in /  0mm 0 W/m2
01:39 49.8 °F /  9.9 °C 47.3 °F /  8.5 °C 29.79in /  1008.7hPa SSW 5.3mph /  8.5km/h 14mph /  22.5km/h 91% 0.00in /  0mm 0 W/m2
01:44 49.8 °F /  9.9 °C 47.3 °F /  8.5 °C 29.78in /  1008.4hPa SW 4.9mph /  7.9km/h 10mph /  16.1km/h 91% 0.00in /  0mm 0 W/m2
01:49 49.8 °F /  9.9 °C 47.3 °F /  8.5 °C 29.78in /  1008.4hPa SW 8.2mph /  13.2km/h 13mph /  20.9km/h 91% 0.00in /  0mm 0 W/m2
01:54 49.6 °F /  9.8 °C 47.1 °F /  8.4 °C 29.78in /  1008.4hPa SSW 5mph /  8km/h 17mph /  27.4km/h 91% 0.00in /  0mm 0 W/m2
01:59 49.6 °F /  9.8 °C 47.1 °F /  8.4 °C 29.78in /  1008.4hPa SSW 2.9mph /  4.7km/h 10mph /  16.1km/h 91% 0.00in /  0mm 0 W/m2
02:04 49.5 °F /  9.7 °C 46.9 °F /  8.3 °C 29.78in /  1008.4hPa SSW 3.3mph /  5.3km/h 12mph /  19.3km/h 91% 0.00in /  0mm 0 W/m2
02:09 49.5 °F /  9.7 °C 46.9 °F /  8.3 °C 29.77in /  1008hPa SSW 5.7mph /  9.2km/h 11mph /  17.7km/h 91% 0.00in /  0mm 0 W/m2
02:14 49.4 °F /  9.7 °C 47 °F /  8.3 °C 29.77in /  1008hPa SSW 5.1mph /  8.2km/h 15mph /  24.1km/h 91.4% 0.00in /  0mm 0 W/m2
02:19 49.3 °F /  9.6 °C 47.1 °F /  8.4 °C 29.77in /  1008hPa SSW 3.6mph /  5.8km/h 10mph /  16.1km/h 92% 0.00in /  0mm 0 W/m2
02:24 49.3 °F /  9.6 °C 47.1 °F /  8.4 °C 29.76in /  1007.7hPa SW 4.7mph /  7.6km/h 10mph /  16.1km/h 92% 0.00in /  0mm 0 W/m2
02:29 49.3 °F /  9.6 °C 47.1 °F /  8.4 °C 29.76in /  1007.7hPa SSW 3.8mph /  6.1km/h 10mph /  16.1km/h 92% 0.00in /  0mm 0 W/m2
02:34 49.3 °F /  9.6 °C 47.1 °F /  8.4 °C 29.76in /  1007.7hPa SW 7.4mph /  11.9km/h 12mph /  19.3km/h 92% 0.01in /  0.25mm 0 W/m2
02:39 49.3 °F /  9.6 °C 47.1 °F /  8.4 °C 29.76in /  1007.7hPa SW 5.4mph /  8.7km/h 10mph /  16.1km/h 92% 0.01in /  0.25mm 0 W/m2
02:44 49.3 °F /  9.6 °C 47.1 °F /  8.4 °C 29.75in /  1007.3hPa SSW 6.2mph /  10km/h 11mph /  17.7km/h 92% 0.01in /  0.25mm 0 W/m2
02:49 49.3 °F /  9.6 °C 47.1 °F /  8.4 °C 29.75in /  1007.3hPa SSW 3.4mph /  5.5km/h 9mph /  14.5km/h 92% 0.01in /  0.25mm 0 W/m2
02:54 49.3 °F /  9.6 °C 47.1 °F /  8.4 °C 29.75in /  1007.3hPa SSW 4.9mph /  7.9km/h 14mph /  22.5km/h 92% 0.01in /  0.25mm 0 W/m2
02:59 49.3 °F /  9.6 °C 47.1 °F /  8.4 °C 29.75in /  1007.3hPa SSW 3.6mph /  5.8km/h 11mph /  17.7km/h 92% 0.01in /  0.25mm 0 W/m2
03:04 49.3 °F /  9.6 °C 47.3 °F /  8.5 °C 29.74in /  1007hPa SSW 8.8mph /  14.2km/h 13mph /  20.9km/h 92.8% 0.01in /  0.25mm 0 W/m2
03:09 49.3 °F /  9.6 °C 47.2 °F /  8.4 °C 29.74in /  1007hPa SSW 8.6mph /  13.8km/h 15mph /  24.1km/h 92.4% 0.01in /  0.25mm 0 W/m2
03:14 49.3 °F /  9.6 °C 47.1 °F /  8.4 °C 29.74in /  1007hPa SW 5.6mph /  9km/h 15mph /  24.1km/h 92% 0.01in /  0.25mm 0 W/m2
03:19 49.3 °F /  9.6 °C 47.1 °F /  8.4 °C 29.74in /  1007hPa SSW 6mph /  9.7km/h 9mph /  14.5km/h 92.2% 0.01in /  0.25mm 0 W/m2
03:24 49.3 °F /  9.6 °C 47.2 °F /  8.4 °C 29.73in /  1006.7hPa SSW 5.9mph /  9.5km/h 12mph /  19.3km/h 92.6% 0.01in /  0.25mm 0 W/m2
03:29 49.4 °F /  9.7 °C 47.3 °F /  8.5 °C 29.73in /  1006.7hPa SSW 7mph /  11.3km/h 14mph /  22.5km/h 92.6% 0.01in /  0.25mm 0 W/m2
03:34 49.5 °F /  9.7 °C 47.3 °F /  8.5 °C 29.73in /  1006.7hPa SSW 4mph /  6.4km/h 11mph /  17.7km/h 92% 0.00in /  0mm 0 W/m2
03:39 49.5 °F /  9.7 °C 47.3 °F /  8.5 °C 29.72in /  1006.3hPa South 7mph /  11.3km/h 12mph /  19.3km/h 92% 0.00in /  0mm 0 W/m2
03:44 49.5 °F /  9.7 °C 47.3 °F /  8.5 °C 29.72in /  1006.3hPa SSW 6mph /  9.7km/h 13mph /  20.9km/h 92% 0.00in /  0mm 0 W/m2
03:49 49.5 °F /  9.7 °C 47.3 °F /  8.5 °C 29.72in /  1006.3hPa SSW 8mph /  12.9km/h 15mph /  24.1km/h 92% 0.00in /  0mm 0 W/m2
03:54 49.5 °F /  9.7 °C 47.3 °F /  8.5 °C 29.72in /  1006.3hPa SSW 6.3mph /  10.1km/h 16mph /  25.7km/h 92% 0.00in /  0mm 0 W/m2
03:59 49.3 °F /  9.6 °C 47.1 °F /  8.4 °C 29.72in /  1006.3hPa SSW 5.1mph /  8.2km/h 11mph /  17.7km/h 92% 0.00in /  0mm 0 W/m2
04:04 49.3 °F /  9.6 °C 47.1 °F /  8.4 °C 29.72in /  1006.3hPa SSW 5.6mph /  9km/h 13mph /  20.9km/h 92% 0.00in /  0mm 0 W/m2
04:09 49.2 °F /  9.6 °C 47 °F /  8.3 °C 29.72in /  1006.3hPa SSW 5.1mph /  8.2km/h 8mph /  12.9km/h 92% 0.00in /  0mm 0 W/m2
04:14 49.1 °F /  9.5 °C 46.9 °F /  8.3 °C 29.71in /  1006hPa SSW 4.1mph /  6.6km/h 9mph /  14.5km/h 92% 0.00in /  0mm 0 W/m2
04:19 48.9 °F /  9.4 °C 46.8 °F /  8.2 °C 29.71in /  1006hPa South 5.9mph /  9.5km/h 11mph /  17.7km/h 92% 0.00in /  0mm 0 W/m2
04:24 48.9 °F /  9.4 °C 46.8 °F /  8.2 °C 29.71in /  1006hPa SSW 3.6mph /  5.8km/h 10mph /  16.1km/h 92% 0.00in /  0mm 0 W/m2
04:29 48.9 °F /  9.4 °C 46.8 °F /  8.2 °C 29.71in /  1006hPa SSW 3.6mph /  5.8km/h 8mph /  12.9km/h 92% 0.00in /  0mm 0 W/m2
04:34 48.8 °F /  9.3 °C 46.8 °F /  8.2 °C 29.71in /  1006hPa SSW 4.4mph /  7.1km/h 11mph /  17.7km/h 93% 0.00in /  0mm 0 W/m2
04:39 48.8 °F /  9.3 °C 46.9 °F /  8.3 °C 29.70in /  1005.6hPa SSW 2.8mph /  4.5km/h 9mph /  14.5km/h 93% 0.00in /  0mm 0 W/m2
04:44 48.7 °F /  9.3 °C 46.8 °F /  8.2 °C 29.70in /  1005.6hPa SSW 4.9mph /  7.9km/h 9mph /  14.5km/h 93% 0.01in /  0.25mm 0 W/m2
04:49 48.7 °F /  9.3 °C 46.8 °F /  8.2 °C 29.70in /  1005.6hPa SSW 1.8mph /  2.9km/h 6mph /  9.7km/h 93% 0.01in /  0.25mm 0 W/m2
04:54 48.7 °F /  9.3 °C 46.8 °F /  8.2 °C 29.70in /  1005.6hPa SSW 3.6mph /  5.8km/h 8mph /  12.9km/h 93% 0.01in /  0.25mm 0 W/m2
04:59 48.7 °F /  9.3 °C 46.8 °F /  8.2 °C 29.70in /  1005.6hPa SW 5.1mph /  8.2km/h 8mph /  12.9km/h 93% 0.01in /  0.25mm 0 W/m2
05:04 48.7 °F /  9.3 °C 46.8 °F /  8.2 °C 29.70in /  1005.6hPa SW 6mph /  9.7km/h 13mph /  20.9km/h 93% 0.01in /  0.25mm 0 W/m2
05:09 48.7 °F /  9.3 °C 46.8 °F /  8.2 °C 29.70in /  1005.6hPa SW 2.7mph /  4.3km/h 8mph /  12.9km/h 93% 0.01in /  0.25mm 0 W/m2
05:14 48.7 °F /  9.3 °C 46.8 °F /  8.2 °C 29.70in /  1005.6hPa SW 9.8mph /  15.8km/h 20mph /  32.2km/h 93% 0.01in /  0.25mm 0 W/m2
05:19 48.4 °F /  9.1 °C 46.4 °F /  8 °C 29.70in /  1005.6hPa WSW 6.6mph /  10.6km/h 16mph /  25.7km/h 93% 0.02in /  0.51mm 0 W/m2
05:24 47.8 °F /  8.8 °C 45.8 °F /  7.7 °C 29.70in /  1005.6hPa West 8mph /  12.9km/h 16mph /  25.7km/h 93% 0.02in /  0.51mm 0 W/m2
05:29 47.6 °F /  8.7 °C 45.6 °F /  7.6 °C 29.70in /  1005.6hPa West 4.4mph /  7.1km/h 12mph /  19.3km/h 93% 0.02in /  0.51mm 0 W/m2
05:34 47.3 °F /  8.5 °C 45.3 °F /  7.4 °C 29.70in /  1005.6hPa West 5.2mph /  8.4km/h 12mph /  19.3km/h 93% 0.02in /  0.51mm 0 W/m2
05:39 47.1 °F /  8.4 °C 45.3 °F /  7.4 °C 29.70in /  1005.6hPa West 4.7mph /  7.6km/h 10mph /  16.1km/h 93.4% 0.02in /  0.51mm 0 W/m2
05:44 46.9 °F /  8.3 °C 45.3 °F /  7.4 °C 29.70in /  1005.6hPa West 4.3mph /  6.9km/h 9mph /  14.5km/h 94% 0.02in /  0.51mm 0 W/m2
05:49 46.9 °F /  8.3 °C 45.1 °F /  7.3 °C 29.70in /  1005.6hPa WNW 3.3mph /  5.3km/h 6mph /  9.7km/h 93.6% 0.01in /  0.25mm 0 W/m2
05:54 46.8 °F /  8.2 °C 45 °F /  7.2 °C 29.70in /  1005.6hPa West 5mph /  8km/h 7mph /  11.3km/h 93.8% 0.01in /  0.25mm 0 W/m2
05:59 46.7 °F /  8.2 °C 45.1 °F /  7.3 °C 29.70in /  1005.6hPa WSW 2.8mph /  4.5km/h 6mph /  9.7km/h 94% 0.01in /  0.25mm 0 W/m2
06:04 46.6 °F /  8.1 °C 45 °F /  7.2 °C 29.70in /  1005.6hPa WSW 2.8mph /  4.5km/h 6mph /  9.7km/h 94% 0.01in /  0.25mm 0 W/m2
06:09 46.4 °F /  8 °C 44.8 °F /  7.1 °C 29.69in /  1005.3hPa WSW 2.6mph /  4.2km/h 5mph /  8km/h 94% 0.01in /  0.25mm 0 W/m2
06:14 46.2 °F /  7.9 °C 44.6 °F /  7 °C 29.69in /  1005.3hPa West 3.9mph /  6.3km/h 7mph /  11.3km/h 94% 0.02in /  0.51mm 0 W/m2
06:19 46.2 °F /  7.9 °C 44.6 °F /  7 °C 29.69in /  1005.3hPa West 2.5mph /  4km/h 6mph /  9.7km/h 94% 0.02in /  0.51mm 0 W/m2
06:24 46.1 °F /  7.8 °C 44.4 °F /  6.9 °C 29.69in /  1005.3hPa West 4.2mph /  6.8km/h 9mph /  14.5km/h 94% 0.02in /  0.51mm 0 W/m2
06:29 45.9 °F /  7.7 °C 44.2 °F /  6.8 °C 29.69in /  1005.3hPa West 4mph /  6.4km/h 9mph /  14.5km/h 94% 0.02in /  0.51mm 0 W/m2
06:34 45.7 °F /  7.6 °C 44.1 °F /  6.7 °C 29.69in /  1005.3hPa West 4.3mph /  6.9km/h 7mph /  11.3km/h 94% 0.02in /  0.51mm 0 W/m2
06:39 45.7 °F /  7.6 °C 44.1 °F /  6.7 °C 29.69in /  1005.3hPa West 5.2mph /  8.4km/h 7mph /  11.3km/h 94% 0.02in /  0.51mm 0 W/m2
06:44 45.5 °F /  7.5 °C 43.9 °F /  6.6 °C 29.69in /  1005.3hPa WSW 5.4mph /  8.7km/h 10mph /  16.1km/h 94% 0.02in /  0.51mm 0 W/m2
06:49 45.3 °F /  7.4 °C 43.7 °F /  6.5 °C 29.70in /  1005.6hPa WSW 3.9mph /  6.3km/h 8mph /  12.9km/h 94% 0.02in /  0.51mm 0 W/m2
06:54 45.3 °F /  7.4 °C 43.7 °F /  6.5 °C 29.70in /  1005.6hPa WSW 3.2mph /  5.1km/h 7mph /  11.3km/h 94% 0.02in /  0.51mm 0 W/m2
06:59 45.3 °F /  7.4 °C 43.7 °F /  6.5 °C 29.70in /  1005.6hPa West 3.7mph /  6km/h 7mph /  11.3km/h 94% 0.02in /  0.51mm 0 W/m2
07:04 45.2 °F /  7.3 °C 43.6 °F /  6.4 °C 29.70in /  1005.6hPa WSW 4.2mph /  6.8km/h 8mph /  12.9km/h 94% 0.02in /  0.51mm 0 W/m2
07:09 45.1 °F /  7.3 °C 43.5 °F /  6.4 °C 29.69in /  1005.3hPa West 3.7mph /  6km/h 7mph /  11.3km/h 94% 0.02in /  0.51mm 0 W/m2
07:14 45.1 °F /  7.3 °C 43.5 °F /  6.4 °C 29.69in /  1005.3hPa West 3mph /  4.8km/h 6mph /  9.7km/h 94% 0.02in /  0.51mm 0 W/m2
07:19 45.1 °F /  7.3 °C 43.5 °F /  6.4 °C 29.69in /  1005.3hPa West 3.2mph /  5.1km/h 7mph /  11.3km/h 94% 0.02in /  0.51mm 7 W/m2
07:24 45.1 °F /  7.3 °C 43.5 °F /  6.4 °C 29.69in /  1005.3hPa West 2.8mph /  4.5km/h 5mph /  8km/h 94% 0.02in /  0.51mm 7 W/m2
07:29 45.1 °F /  7.3 °C 43.6 °F /  6.4 °C 29.70in /  1005.6hPa West 2.1mph /  3.4km/h 5mph /  8km/h 94.2% 0.02in /  0.51mm 7 W/m2
07:34 45.1 °F /  7.3 °C 43.6 °F /  6.4 °C 29.69in /  1005.3hPa West 2.8mph /  4.5km/h 5mph /  8km/h 94.2% 0.02in /  0.51mm 12 W/m2
07:39 45.1 °F /  7.3 °C 43.5 °F /  6.4 °C 29.69in /  1005.3hPa West 2.3mph /  3.7km/h 5mph /  8km/h 94% 0.02in /  0.51mm 16 W/m2
07:44 45.1 °F /  7.3 °C 43.5 °F /  6.4 °C 29.69in /  1005.3hPa West 2.8mph /  4.5km/h 5mph /  8km/h 94% 0.02in /  0.51mm 12 W/m2
07:49 45.1 °F /  7.3 °C 43.5 °F /  6.4 °C 29.69in /  1005.3hPa WSW 2.8mph /  4.5km/h 7mph /  11.3km/h 94% 0.02in /  0.51mm 26 W/m2
07:54 45.1 °F /  7.3 °C 43.9 °F /  6.6 °C 29.69in /  1005.3hPa WSW 2.4mph /  3.9km/h 4mph /  6.4km/h 95% 0.02in /  0.51mm 33 W/m2
07:59 45.3 °F /  7.4 °C 44.1 °F /  6.7 °C 29.69in /  1005.3hPa WSW 2.4mph /  3.9km/h 4mph /  6.4km/h 95% 0.02in /  0.51mm 30 W/m2
08:04 45.3 °F /  7.4 °C 44.1 °F /  6.7 °C 29.70in /  1005.6hPa WSW 3.4mph /  5.5km/h 5mph /  8km/h 95% 0.02in /  0.51mm 30 W/m2
08:09 45.3 °F /  7.4 °C 44.1 °F /  6.7 °C 29.69in /  1005.3hPa WSW 2.1mph /  3.4km/h 5mph /  8km/h 95% 0.02in /  0.51mm 30 W/m2
08:14 45.3 °F /  7.4 °C 44.1 °F /  6.7 °C 29.69in /  1005.3hPa WSW 1.6mph /  2.6km/h 4mph /  6.4km/h 95% 0.02in /  0.51mm 32 W/m2
08:19 45.3 °F /  7.4 °C 44.1 °F /  6.7 °C 29.69in /  1005.3hPa WSW 3.6mph /  5.8km/h 5mph /  8km/h 95% 0.02in /  0.51mm 40 W/m2
08:24 45.4 °F /  7.4 °C 44.1 °F /  6.7 °C 29.69in /  1005.3hPa WSW 2.4mph /  3.9km/h 4mph /  6.4km/h 95% 0.02in /  0.51mm 30 W/m2
08:29 45.5 °F /  7.5 °C 44.2 °F /  6.8 °C 29.69in /  1005.3hPa WSW 1.1mph /  1.8km/h 4mph /  6.4km/h 95% 0.02in /  0.51mm 30 W/m2
08:34 45.6 °F /  7.6 °C 44.3 °F /  6.8 °C 29.69in /  1005.3hPa WSW 1.6mph /  2.6km/h 4mph /  6.4km/h 95% 0.03in /  0.76mm 33 W/m2
08:39 45.6 °F /  7.6 °C 44.3 °F /  6.8 °C 29.69in /  1005.3hPa WSW 0.5mph /  0.8km/h 2mph /  3.2km/h 95% 0.04in /  1.02mm 44 W/m2
08:44 45.7 °F /  7.6 °C 44.4 °F /  6.9 °C 29.68in /  1005hPa Calm   1mph /  1.6km/h 95% 0.05in /  1.27mm 44 W/m2
08:49 45.7 °F /  7.6 °C 44.4 °F /  6.9 °C 29.68in /  1005hPa WSW 0.2mph /  0.3km/h 1mph /  1.6km/h 95% 0.05in /  1.27mm 32 W/m2
08:54 45.7 °F /  7.6 °C 44.4 °F /  6.9 °C 29.68in /  1005hPa WSW 0.7mph /  1.1km/h 2mph /  3.2km/h 95% 0.05in /  1.27mm 30 W/m2
08:59 45.7 °F /  7.6 °C 44.4 °F /  6.9 °C 29.68in /  1005hPa WSW 0.7mph /  1.1km/h 2mph /  3.2km/h 95% 0.05in /  1.27mm 37 W/m2
09:04 45.8 °F /  7.7 °C 44.4 °F /  6.9 °C 29.68in /  1005hPa Calm   2mph /  3.2km/h 95% 0.05in /  1.27mm 46 W/m2
09:09 45.9 °F /  7.7 °C 44.4 °F /  6.9 °C 29.67in /  1004.6hPa Calm     95% 0.05in /  1.27mm 46 W/m2
09:14 45.9 °F /  7.7 °C 44.4 °F /  6.9 °C 29.68in /  1005hPa Calm     95% 0.05in /  1.27mm 42 W/m2
09:19 45.9 °F /  7.7 °C 44.4 °F /  6.9 °C 29.68in /  1005hPa Calm     95% 0.05in /  1.27mm 33 W/m2
09:24 46 °F /  7.8 °C 44.6 °F /  7 °C 29.68in /  1005hPa WSW 0.8mph /  1.3km/h 3mph /  4.8km/h 95% 0.04in /  1.02mm 56 W/m2
09:29 46 °F /  7.8 °C 44.6 °F /  7 °C 29.68in /  1005hPa WSW 1.4mph /  2.3km/h 3mph /  4.8km/h 95% 0.04in /  1.02mm 90 W/m2
09:34 46 °F /  7.8 °C 44.6 °F /  7 °C 29.68in /  1005hPa WSW 1.3mph /  2.1km/h 3mph /  4.8km/h 95% 0.03in /  0.76mm 98 W/m2
09:39 46.2 °F /  7.9 °C 44.8 °F /  7.1 °C 29.68in /  1005hPa WSW 1.6mph /  2.6km/h 3mph /  4.8km/h 95% 0.02in /  0.51mm 91 W/m2
09:44 46.2 °F /  7.9 °C 44.8 °F /  7.1 °C 29.68in /  1005hPa WSW 1.2mph /  1.9km/h 3mph /  4.8km/h 95% 0.01in /  0.25mm 95 W/m2
09:49 46.2 °F /  7.9 °C 44.8 °F /  7.1 °C 29.67in /  1004.6hPa WSW 0.9mph /  1.4km/h 3mph /  4.8km/h 95% 0.01in /  0.25mm 125 W/m2
09:54 46.2 °F /  7.9 °C 44.8 °F /  7.1 °C 29.67in /  1004.6hPa WSW 1.2mph /  1.9km/h 4mph /  6.4km/h 95% 0.01in /  0.25mm 120 W/m2
09:59 46.2 °F /  7.9 °C 44.8 °F /  7.1 °C 29.67in /  1004.6hPa WSW 2.1mph /  3.4km/h 4mph /  6.4km/h 95% 0.01in /  0.25mm 120 W/m2
10:04 46.5 °F /  8.1 °C 45.1 °F /  7.3 °C 29.67in /  1004.6hPa WSW 1.6mph /  2.6km/h 4mph /  6.4km/h 95% 0.01in /  0.25mm 123 W/m2
10:09 46.6 °F /  8.1 °C 45.1 °F /  7.3 °C 29.67in /  1004.6hPa WSW 2.9mph /  4.7km/h 5mph /  8km/h 95% 0.01in /  0.25mm 118 W/m2
10:14 46.6 °F /  8.1 °C 45.1 °F /  7.3 °C 29.67in /  1004.6hPa WSW 2.3mph /  3.7km/h 5mph /  8km/h 95% 0.01in /  0.25mm 90 W/m2
10:19 46.5 °F /  8.1 °C 45.1 °F /  7.3 °C 29.67in /  1004.6hPa West 2.5mph /  4km/h 5mph /  8km/h 95% 0.01in /  0.25mm 111 W/m2
10:24 46.4 °F /  8 °C 45 °F /  7.2 °C 29.67in /  1004.6hPa West 3.8mph /  6.1km/h 8mph /  12.9km/h 95% 0.01in /  0.25mm 120 W/m2
10:29 46.3 °F /  7.9 °C 44.9 °F /  7.2 °C 29.67in /  1004.6hPa West 4.5mph /  7.2km/h 8mph /  12.9km/h 95% 0.01in /  0.25mm 83 W/m2
10:34 46.4 °F /  8 °C 45 °F /  7.2 °C 29.67in /  1004.6hPa WNW 5mph /  8km/h 9mph /  14.5km/h 95% 0.01in /  0.25mm 67 W/m2
10:39 46.2 °F /  7.9 °C 44.8 °F /  7.1 °C 29.67in /  1004.6hPa West 4.3mph /  6.9km/h 9mph /  14.5km/h 95% 0.01in /  0.25mm 172 W/m2
10:44 46.3 °F /  7.9 °C 44.9 °F /  7.2 °C 29.67in /  1004.6hPa West 1.3mph /  2.1km/h 5mph /  8km/h 95% 0.01in /  0.25mm 200 W/m2
10:49 46.3 °F /  7.9 °C 44.9 °F /  7.2 °C 29.67in /  1004.6hPa WNW 2.5mph /  4km/h 5mph /  8km/h 95% 0.01in /  0.25mm 179 W/m2
10:54 45.8 °F /  7.7 °C 44.4 °F /  6.9 °C 29.67in /  1004.6hPa WNW 4.4mph /  7.1km/h 8mph /  12.9km/h 95% 0.00in /  0mm 181 W/m2
10:59 45.7 °F /  7.6 °C 44.4 °F /  6.9 °C 29.67in /  1004.6hPa WNW 5.6mph /  9km/h 10mph /  16.1km/h 95% 0.00in /  0mm 181 W/m2
11:04 45.7 °F /  7.6 °C 44.4 °F /  6.9 °C 29.68in /  1005hPa NW 5.5mph /  8.9km/h 11mph /  17.7km/h 95% 0.00in /  0mm 141 W/m2
11:09 45.8 °F /  7.7 °C 44.4 °F /  6.9 °C 29.68in /  1005hPa WNW 3.4mph /  5.5km/h 9mph /  14.5km/h 95% 0.00in /  0mm 84 W/m2
11:14 45.7 °F /  7.6 °C 44.4 °F /  6.9 °C 29.67in /  1004.6hPa WNW 4.1mph /  6.6km/h 10mph /  16.1km/h 95% 0.01in /  0.25mm 83 W/m2
11:19 45.4 °F /  7.4 °C 44.2 °F /  6.8 °C 29.67in /  1004.6hPa WNW 4.6mph /  7.4km/h 8mph /  12.9km/h 95% 0.01in /  0.25mm 113 W/m2
11:24 45.3 °F /  7.4 °C 43.8 °F /  6.6 °C 29.67in /  1004.6hPa NW 1.6mph /  2.6km/h 7mph /  11.3km/h 94.2% 0.01in /  0.25mm 174 W/m2
11:29 45.5 °F /  7.5 °C 43.9 °F /  6.6 °C 29.67in /  1004.6hPa WNW 3.2mph /  5.1km/h 7mph /  11.3km/h 94% 0.01in /  0.25mm 183 W/m2
11:34 45.7 °F /  7.6 °C 44.1 °F /  6.7 °C 29.67in /  1004.6hPa WNW 2.7mph /  4.3km/h 6mph /  9.7km/h 94% 0.01in /  0.25mm 169 W/m2
11:39 45.9 °F /  7.7 °C 44.1 °F /  6.7 °C 29.67in /  1004.6hPa WNW 3.1mph /  5km/h 7mph /  11.3km/h 93.8% 0.01in /  0.25mm 158 W/m2
11:44 45.9 °F /  7.7 °C 44 °F /  6.7 °C 29.67in /  1004.6hPa WNW 3.7mph /  6km/h 9mph /  14.5km/h 93% 0.01in /  0.25mm 158 W/m2
11:49 45.9 °F /  7.7 °C 43.9 °F /  6.6 °C 29.67in /  1004.6hPa WNW 1.6mph /  2.6km/h 6mph /  9.7km/h 93% 0.01in /  0.25mm 155 W/m2
11:54 46 °F /  7.8 °C 44 °F /  6.7 °C 29.67in /  1004.6hPa WNW 3.2mph /  5.1km/h 5mph /  8km/h 92.6% 0.01in /  0.25mm 165 W/m2
11:59 46 °F /  7.8 °C 43.9 °F /  6.6 °C 29.67in /  1004.6hPa WNW 2.7mph /  4.3km/h 5mph /  8km/h 92% 0.01in /  0.25mm 169 W/m2
12:04 46.2 °F /  7.9 °C 44.1 °F /  6.7 °C 29.67in /  1004.6hPa WNW 2mph /  3.2km/h 6mph /  9.7km/h 92% 0.01in /  0.25mm 204 W/m2
12:09 46.2 °F /  7.9 °C 43.8 °F /  6.6 °C 29.67in /  1004.6hPa WNW 4.2mph /  6.8km/h 8mph /  12.9km/h 91.2% 0.01in /  0.25mm 206 W/m2
12:14 46.5 °F /  8.1 °C 44 °F /  6.7 °C 29.67in /  1004.6hPa West 1.5mph /  2.4km/h 6mph /  9.7km/h 91% 0.00in /  0mm 156 W/m2
12:19 46.7 °F /  8.2 °C 44 °F /  6.7 °C 29.67in /  1004.6hPa West 2.8mph /  4.5km/h 6mph /  9.7km/h 90% 0.00in /  0mm 121 W/m2
12:24 46.6 °F /  8.1 °C 43.7 °F /  6.5 °C 29.67in /  1004.6hPa WNW 3.8mph /  6.1km/h 6mph /  9.7km/h 89.6% 0.00in /  0mm 116 W/m2
12:29 46.6 °F /  8.1 °C 43.5 °F /  6.4 °C 29.67in /  1004.6hPa WNW 2.8mph /  4.5km/h 6mph /  9.7km/h 89% 0.00in /  0mm 97 W/m2
12:34 46.6 °F /  8.1 °C 43.5 °F /  6.4 °C 29.66in /  1004.3hPa WNW 5.4mph /  8.7km/h 8mph /  12.9km/h 89% 0.00in /  0mm 109 W/m2
12:39 46.3 °F /  7.9 °C 42.9 °F /  6.1 °C 29.66in /  1004.3hPa NW 3.6mph /  5.8km/h 7mph /  11.3km/h 88% 0.00in /  0mm 104 W/m2
12:44 46.2 °F /  7.9 °C 42.7 °F /  5.9 °C 29.67in /  1004.6hPa West 3.5mph /  5.6km/h 8mph /  12.9km/h 87.6% 0.00in /  0mm 98 W/m2
12:49 46.1 °F /  7.8 °C 42.5 °F /  5.8 °C 29.67in /  1004.6hPa West 3.5mph /  5.6km/h 10mph /  16.1km/h 87% 0.00in /  0mm 91 W/m2
12:54 46 °F /  7.8 °C 42.1 °F /  5.6 °C 29.67in /  1004.6hPa West 4mph /  6.4km/h 8mph /  12.9km/h 86% 0.00in /  0mm 104 W/m2
12:59 46 °F /  7.8 °C 42.1 °F /  5.6 °C 29.66in /  1004.3hPa West 4.2mph /  6.8km/h 9mph /  14.5km/h 86% 0.00in /  0mm 116 W/m2
13:04 46 °F /  7.8 °C 41.9 °F /  5.5 °C 29.66in /  1004.3hPa West 4.3mph /  6.9km/h 9mph /  14.5km/h 85.6% 0.00in /  0mm 120 W/m2
13:09 46 °F /  7.8 °C 41.7 °F /  5.4 °C 29.66in /  1004.3hPa West 3.2mph /  5.1km/h 8mph /  12.9km/h 85% 0.00in /  0mm 139 W/m2
13:14 46 °F /  7.8 °C 41.7 °F /  5.4 °C 29.66in /  1004.3hPa West 5.2mph /  8.4km/h 8mph /  12.9km/h 85% 0.00in /  0mm 139 W/m2
13:19 46.1 °F /  7.8 °C 41.7 °F /  5.4 °C 29.66in /  1004.3hPa West 4.3mph /  6.9km/h 8mph /  12.9km/h 84.2% 0.00in /  0mm 130 W/m2
13:24 46.1 °F /  7.8 °C 41.7 °F /  5.4 °C 29.66in /  1004.3hPa WNW 4.4mph /  7.1km/h 8mph /  12.9km/h 84.4% 0.00in /  0mm 120 W/m2
13:29 46.2 °F /  7.9 °C 41.7 °F /  5.4 °C 29.66in /  1004.3hPa West 3.7mph /  6km/h 6mph /  9.7km/h 84% 0.00in /  0mm 116 W/m2
13:34 46.2 °F /  7.9 °C 41.7 °F /  5.4 °C 29.66in /  1004.3hPa West 4.5mph /  7.2km/h 9mph /  14.5km/h 84% 0.00in /  0mm 107 W/m2
13:39 46 °F /  7.8 °C 41.2 °F /  5.1 °C 29.65in /  1003.9hPa West 3.2mph /  5.1km/h 10mph /  16.1km/h 83% 0.00in /  0mm 105 W/m2
13:44 46 °F /  7.8 °C 40.9 °F /  4.9 °C 29.65in /  1003.9hPa West 3.4mph /  5.5km/h 7mph /  11.3km/h 82.2% 0.00in /  0mm 125 W/m2
13:49 46 °F /  7.8 °C 40.8 °F /  4.9 °C 29.65in /  1003.9hPa West 4.5mph /  7.2km/h 7mph /  11.3km/h 82% 0.00in /  0mm 127 W/m2
13:54 46.1 °F /  7.8 °C 40.9 °F /  4.9 °C 29.65in /  1003.9hPa West 3.2mph /  5.1km/h 7mph /  11.3km/h 82% 0.00in /  0mm 149 W/m2
13:59 46.2 °F /  7.9 °C 41 °F /  5 °C 29.65in /  1003.9hPa West 2.4mph /  3.9km/h 6mph /  9.7km/h 82% 0.00in /  0mm 163 W/m2
14:04 46.4 °F /  8 °C 41 °F /  5 °C 29.65in /  1003.9hPa West 3.2mph /  5.1km/h 6mph /  9.7km/h 81.6% 0.00in /  0mm 176 W/m2
14:09 46.4 °F /  8 °C 40.9 °F /  4.9 °C 29.65in /  1003.9hPa WSW 2.9mph /  4.7km/h 6mph /  9.7km/h 81.2% 0.00in /  0mm 176 W/m2
14:14 46.4 °F /  8 °C 40.8 °F /  4.9 °C 29.65in /  1003.9hPa West 4mph /  6.4km/h 7mph /  11.3km/h 81% 0.00in /  0mm 200 W/m2
14:19 46.6 °F /  8.1 °C 41 °F /  5 °C 29.65in /  1003.9hPa West 3.5mph /  5.6km/h 5mph /  8km/h 81% 0.00in /  0mm 176 W/m2
14:24 46.7 °F /  8.2 °C 41.2 °F /  5.1 °C 29.65in /  1003.9hPa West 3.7mph /  6km/h 7mph /  11.3km/h 81.4% 0.00in /  0mm 225 W/m2
14:29 46.6 °F /  8.1 °C 41.1 °F /  5.1 °C 29.65in /  1003.9hPa West 4.5mph /  7.2km/h 8mph /  12.9km/h 81.2% 0.00in /  0mm 199 W/m2
14:34 46.6 °F /  8.1 °C 41 °F /  5 °C 29.64in /  1003.6hPa West 4mph /  6.4km/h 8mph /  12.9km/h 81% 0.00in /  0mm 197 W/m2
14:39 46.8 °F /  8.2 °C 41.2 °F /  5.1 °C 29.64in /  1003.6hPa West 3.7mph /  6km/h 8mph /  12.9km/h 81% 0.00in /  0mm 178 W/m2
14:44 46.6 °F /  8.1 °C 41 °F /  5 °C 29.64in /  1003.6hPa West 4.5mph /  7.2km/h 8mph /  12.9km/h 81% 0.00in /  0mm 125 W/m2
14:49 46.5 °F /  8.1 °C 40.8 °F /  4.9 °C 29.64in /  1003.6hPa West 4.5mph /  7.2km/h 9mph /  14.5km/h 80.6% 0.00in /  0mm 158 W/m2
14:54 46.6 °F /  8.1 °C 40.8 °F /  4.9 °C 29.64in /  1003.6hPa WNW 3.3mph /  5.3km/h 8mph /  12.9km/h 80% 0.00in /  0mm 155 W/m2
14:59 46.5 °F /  8.1 °C 40.6 °F /  4.8 °C 29.64in /  1003.6hPa West 3.7mph /  6km/h 8mph /  12.9km/h 79.6% 0.00in /  0mm 123 W/m2
15:04 46.4 °F /  8 °C 40.3 °F /  4.6 °C 29.64in /  1003.6hPa West 4.8mph /  7.7km/h 9mph /  14.5km/h 79% 0.00in /  0mm 105 W/m2
15:09 46.2 °F /  7.9 °C 40.1 °F /  4.5 °C 29.64in /  1003.6hPa West 5.1mph /  8.2km/h 9mph /  14.5km/h 79% 0.00in /  0mm 98 W/m2
15:14 46.2 °F /  7.9 °C 40.1 °F /  4.5 °C 29.64in /  1003.6hPa West 5.5mph /  8.9km/h 9mph /  14.5km/h 79% 0.00in /  0mm 98 W/m2
15:19 46.2 °F /  7.9 °C 40.1 °F /  4.5 °C 29.64in /  1003.6hPa West 4.4mph /  7.1km/h 10mph /  16.1km/h 79% 0.00in /  0mm 105 W/m2
15:24 46.2 °F /  7.9 °C 40.1 °F /  4.5 °C 29.64in /  1003.6hPa WSW 5.7mph /  9.2km/h 9mph /  14.5km/h 79% 0.00in /  0mm 98 W/m2
15:29 46.2 °F /  7.9 °C 40.1 °F /  4.5 °C 29.63in /  1003.3hPa West 4.1mph /  6.6km/h 8mph /  12.9km/h 79% 0.00in /  0mm 105 W/m2
15:34 46.1 °F /  7.8 °C 40 °F /  4.4 °C 29.63in /  1003.3hPa West 4.9mph /  7.9km/h 9mph /  14.5km/h 79% 0.00in /  0mm 105 W/m2
15:39 46 °F /  7.8 °C 39.9 °F /  4.4 °C 29.63in /  1003.3hPa West 6.2mph /  10km/h 11mph /  17.7km/h 79% 0.00in /  0mm 100 W/m2
15:44 46 °F /  7.8 °C 39.9 °F /  4.4 °C 29.63in /  1003.3hPa West 5.8mph /  9.3km/h 11mph /  17.7km/h 79% 0.00in /  0mm 111 W/m2
15:49 46.2 °F /  7.9 °C 40.3 °F /  4.6 °C 29.63in /  1003.3hPa West 3.6mph /  5.8km/h 7mph /  11.3km/h 79.6% 0.00in /  0mm 116 W/m2
15:54 46.2 °F /  7.9 °C 40.5 °F /  4.7 °C 29.63in /  1003.3hPa West 5.3mph /  8.5km/h 8mph /  12.9km/h 80% 0.00in /  0mm 111 W/m2
15:59 46.2 °F /  7.9 °C 40.5 °F /  4.7 °C 29.63in /  1003.3hPa West 6.8mph /  10.9km/h 11mph /  17.7km/h 80% 0.00in /  0mm 111 W/m2
16:04 46.1 °F /  7.8 °C 40.4 °F /  4.7 °C 29.63in /  1003.3hPa WSW 5.6mph /  9km/h 11mph /  17.7km/h 80% 0.00in /  0mm 100 W/m2
16:09 46 °F /  7.8 °C 40.3 °F /  4.6 °C 29.63in /  1003.3hPa West 6.8mph /  10.9km/h 13mph /  20.9km/h 80% 0.00in /  0mm 81 W/m2
16:14 46 °F /  7.8 °C 40.5 °F /  4.7 °C 29.64in /  1003.6hPa West 6mph /  9.7km/h 11mph /  17.7km/h 81% 0.00in /  0mm 81 W/m2
16:19 45.9 °F /  7.7 °C 40.3 °F /  4.6 °C 29.64in /  1003.6hPa West 5.2mph /  8.4km/h 14mph /  22.5km/h 81% 0.00in /  0mm 77 W/m2
16:24 45.7 °F /  7.6 °C 40.1 °F /  4.5 °C 29.63in /  1003.3hPa West 6.8mph /  10.9km/h 12mph /  19.3km/h 81% 0.00in /  0mm 72 W/m2
16:29 45.7 °F /  7.6 °C 40.1 °F /  4.5 °C 29.63in /  1003.3hPa West 6.9mph /  11.1km/h 12mph /  19.3km/h 81% 0.00in /  0mm 72 W/m2
16:33 45.7 °F /  7.6 °C 40.1 °F /  4.5 °C 29.63in /  1003.3hPa West 6.9mph /  11.1km/h 7mph /  11.3km/h 81% 0.00in /  0mm 72 W/m2
16:39 45.6 °F /  7.6 °C 40.1 °F /  4.5 °C 29.63in /  1003.3hPa West 7.6mph /  12.2km/h 12mph /  19.3km/h 81% 0.00in /  0mm 72 W/m2
16:44 45.5 °F /  7.5 °C 40.1 °F /  4.5 °C 29.63in /  1003.3hPa West 6.4mph /  10.3km/h 10mph /  16.1km/h 81% 0.00in /  0mm 46 W/m2
16:49 45.3 °F /  7.4 °C 39.9 °F /  4.4 °C 29.63in /  1003.3hPa West 4.7mph /  7.6km/h 9mph /  14.5km/h 81% 0.00in /  0mm 37 W/m2
16:54 45.3 °F /  7.4 °C 40.1 °F /  4.5 °C 29.64in /  1003.6hPa West 6mph /  9.7km/h 11mph /  17.7km/h 82% 0.00in /  0mm 39 W/m2
16:59 45.2 °F /  7.3 °C 40 °F /  4.4 °C 29.64in /  1003.6hPa West 5.2mph /  8.4km/h 11mph /  17.7km/h 82% 0.00in /  0mm 32 W/m2
17:04 45.1 °F /  7.3 °C 40.1 °F /  4.5 °C 29.64in /  1003.6hPa WSW 6mph /  9.7km/h 12mph /  19.3km/h 82.6% 0.00in /  0mm 25 W/m2
17:09 45.1 °F /  7.3 °C 40.2 °F /  4.6 °C 29.64in /  1003.6hPa West 7.2mph /  11.6km/h 13mph /  20.9km/h 83% 0.00in /  0mm 25 W/m2
17:14 44.9 °F /  7.2 °C 40 °F /  4.4 °C 29.63in /  1003.3hPa West 6.8mph /  10.9km/h 15mph /  24.1km/h 83% 0.00in /  0mm 19 W/m2
17:19 44.6 °F /  7 °C 39.7 °F /  4.3 °C 29.63in /  1003.3hPa WSW 5.2mph /  8.4km/h 10mph /  16.1km/h 83% 0.00in /  0mm 12 W/m2
17:24 44.2 °F /  6.8 °C 39.2 °F /  4 °C 29.63in /  1003.3hPa West 6.2mph /  10km/h 11mph /  17.7km/h 82.4% 0.00in /  0mm 7 W/m2
17:29 43.9 °F /  6.6 °C 38.7 °F /  3.7 °C 29.63in /  1003.3hPa West 4.1mph /  6.6km/h 9mph /  14.5km/h 81.8% 0.00in /  0mm 7 W/m2
17:34 43.9 °F /  6.6 °C 38.5 °F /  3.6 °C 29.63in /  1003.3hPa West 5.3mph /  8.5km/h 8mph /  12.9km/h 81% 0.00in /  0mm 5 W/m2
17:39 43.7 °F /  6.5 °C 38.3 °F /  3.5 °C 29.63in /  1003.3hPa West 6.4mph /  10.3km/h 12mph /  19.3km/h 81% 0.00in /  0mm 5 W/m2
17:44 43.4 °F /  6.3 °C 37.7 °F /  3.2 °C 29.63in /  1003.3hPa West 6.8mph /  10.9km/h 11mph /  17.7km/h 80% 0.00in /  0mm 0 W/m2
17:49 43.2 °F /  6.2 °C 37.8 °F /  3.2 °C 29.64in /  1003.6hPa West 5.8mph /  9.3km/h 12mph /  19.3km/h 80.8% 0.00in /  0mm 0 W/m2
17:54 43.1 °F /  6.2 °C 37.7 °F /  3.2 °C 29.64in /  1003.6hPa West 8.6mph /  13.8km/h 14mph /  22.5km/h 81% 0.00in /  0mm 0 W/m2
17:59 43 °F /  6.1 °C 37.8 °F /  3.2 °C 29.64in /  1003.6hPa West 4.7mph /  7.6km/h 14mph /  22.5km/h 81.8% 0.00in /  0mm 0 W/m2
18:04 42.7 °F /  5.9 °C 37.8 °F /  3.2 °C 29.63in /  1003.3hPa West 4.4mph /  7.1km/h 11mph /  17.7km/h 82.2% 0.00in /  0mm 0 W/m2
18:09 42.6 °F /  5.9 °C 37.8 °F /  3.2 °C 29.63in /  1003.3hPa WSW 6.2mph /  10km/h 13mph /  20.9km/h 83% 0.00in /  0mm 0 W/m2
18:14 42.5 °F /  5.8 °C 37.8 °F /  3.2 °C 29.63in /  1003.3hPa West 4.2mph /  6.8km/h 8mph /  12.9km/h 83.4% 0.00in /  0mm 0 W/m2
18:19 42.4 °F /  5.8 °C 37.9 °F /  3.3 °C 29.63in /  1003.3hPa West 4.3mph /  6.9km/h 10mph /  16.1km/h 84% 0.00in /  0mm 0 W/m2
18:24 42.3 °F /  5.7 °C 37.8 °F /  3.2 °C 29.63in /  1003.3hPa West 5.9mph /  9.5km/h 9mph /  14.5km/h 84% 0.00in /  0mm 0 W/m2
18:29 42.3 °F /  5.7 °C 37.8 °F /  3.2 °C 29.63in /  1003.3hPa West 3.4mph /  5.5km/h 6mph /  9.7km/h 84% 0.00in /  0mm 0 W/m2
18:34 42.1 °F /  5.6 °C 37.6 °F /  3.1 °C 29.63in /  1003.3hPa West 4.5mph /  7.2km/h 9mph /  14.5km/h 84% 0.00in /  0mm 0 W/m2
18:39 42.1 °F /  5.6 °C 37.6 °F /  3.1 °C 29.63in /  1003.3hPa West 4.7mph /  7.6km/h 9mph /  14.5km/h 84% 0.00in /  0mm 0 W/m2
18:44 42.1 °F /  5.6 °C 37.6 °F /  3.1 °C 29.63in /  1003.3hPa WSW 4mph /  6.4km/h 11mph /  17.7km/h 84% 0.00in /  0mm 0 W/m2
18:49 42 °F /  5.6 °C 37.5 °F /  3.1 °C 29.63in /  1003.3hPa West 3.7mph /  6km/h 6mph /  9.7km/h 84% 0.00in /  0mm 0 W/m2
18:54 41.8 °F /  5.4 °C 37.3 °F /  2.9 °C 29.63in /  1003.3hPa West 2.1mph /  3.4km/h 8mph /  12.9km/h 84% 0.00in /  0mm 0 W/m2
18:59 41.8 °F /  5.4 °C 37.3 °F /  2.9 °C 29.63in /  1003.3hPa West 2.9mph /  4.7km/h 6mph /  9.7km/h 84% 0.00in /  0mm 0 W/m2
19:04 41.7 °F /  5.4 °C 37.2 °F /  2.9 °C 29.63in /  1003.3hPa West 2.5mph /  4km/h 5mph /  8km/h 84% 0.00in /  0mm 0 W/m2
19:09 41.5 °F /  5.3 °C 37 °F /  2.8 °C 29.63in /  1003.3hPa WSW 3mph /  4.8km/h 6mph /  9.7km/h 84% 0.00in /  0mm 0 W/m2
19:14 41.5 °F /  5.3 °C 37 °F /  2.8 °C 29.63in /  1003.3hPa WSW 2.4mph /  3.9km/h 5mph /  8km/h 84% 0.00in /  0mm 0 W/m2
19:19 41.5 °F /  5.3 °C 37 °F /  2.8 °C 29.63in /  1003.3hPa WSW 2.8mph /  4.5km/h 5mph /  8km/h 84% 0.00in /  0mm 0 W/m2
19:24 41.4 °F /  5.2 °C 36.9 °F /  2.7 °C 29.63in /  1003.3hPa WSW 2.1mph /  3.4km/h 5mph /  8km/h 84% 0.00in /  0mm 0 W/m2
19:29 41.3 °F /  5.2 °C 37.1 °F /  2.8 °C 29.63in /  1003.3hPa WSW 1.8mph /  2.9km/h 5mph /  8km/h 84.8% 0.00in /  0mm 0 W/m2
19:34 41.2 °F /  5.1 °C 37 °F /  2.8 °C 29.62in /  1002.9hPa WSW 3.2mph /  5.1km/h 5mph /  8km/h 85% 0.00in /  0mm 0 W/m2
19:39 41.1 °F /  5.1 °C 37 °F /  2.8 °C 29.63in /  1003.3hPa WSW 3.7mph /  6km/h 5mph /  8km/h 85% 0.00in /  0mm 0 W/m2
19:44 41 °F /  5 °C 36.9 °F /  2.7 °C 29.62in /  1002.9hPa WSW 4mph /  6.4km/h 6mph /  9.7km/h 85% 0.00in /  0mm 0 W/m2
19:49 41 °F /  5 °C 37.1 °F /  2.8 °C 29.62in /  1002.9hPa WSW 4.3mph /  6.9km/h 7mph /  11.3km/h 85.6% 0.00in /  0mm 0 W/m2
19:54 41 °F /  5 °C 37.2 °F /  2.9 °C 29.62in /  1002.9hPa WSW 2.9mph /  4.7km/h 9mph /  14.5km/h 86% 0.00in /  0mm 0 W/m2
19:59 40.8 °F /  4.9 °C 37 °F /  2.8 °C 29.62in /  1002.9hPa West 4.2mph /  6.8km/h 7mph /  11.3km/h 86% 0.00in /  0mm 0 W/m2
20:04 40.8 °F /  4.9 °C 37 °F /  2.8 °C 29.62in /  1002.9hPa WSW 2.5mph /  4km/h 8mph /  12.9km/h 86% 0.00in /  0mm 0 W/m2
20:09 40.6 °F /  4.8 °C 37 °F /  2.8 °C 29.62in /  1002.9hPa West 2.8mph /  4.5km/h 8mph /  12.9km/h 86.6% 0.00in /  0mm 0 W/m2
20:14 40.6 °F /  4.8 °C 37 °F /  2.8 °C 29.62in /  1002.9hPa WSW 3.2mph /  5.1km/h 6mph /  9.7km/h 87% 0.00in /  0mm 0 W/m2
20:19 40.6 °F /  4.8 °C 37 °F /  2.8 °C 29.62in /  1002.9hPa SW 2.4mph /  3.9km/h 6mph /  9.7km/h 87% 0.00in /  0mm 0 W/m2
20:24 40.5 °F /  4.7 °C 36.9 °F /  2.7 °C 29.62in /  1002.9hPa SW 2.5mph /  4km/h 5mph /  8km/h 87% 0.00in /  0mm 0 W/m2
20:29 40.5 °F /  4.7 °C 36.9 °F /  2.7 °C 29.62in /  1002.9hPa WSW 1.5mph /  2.4km/h 5mph /  8km/h 87% 0.00in /  0mm 0 W/m2
20:34 40.5 °F /  4.7 °C 37 °F /  2.8 °C 29.62in /  1002.9hPa WSW 1.6mph /  2.6km/h 5mph /  8km/h 87.4% 0.00in /  0mm 0 W/m2
20:39 40.4 °F /  4.7 °C 37.1 °F /  2.8 °C 29.62in /  1002.9hPa WSW 2.8mph /  4.5km/h 5mph /  8km/h 88% 0.00in /  0mm 0 W/m2
20:44 40.3 °F /  4.6 °C 37 °F /  2.8 °C 29.62in /  1002.9hPa WSW 2.5mph /  4km/h 5mph /  8km/h 88% 0.00in /  0mm 0 W/m2
20:49 40 °F /  4.4 °C 36.8 °F /  2.7 °C 29.62in /  1002.9hPa WSW 2mph /  3.2km/h 4mph /  6.4km/h 88% 0.00in /  0mm 0 W/m2
20:54 39.8 °F /  4.3 °C 36.6 °F /  2.6 °C 29.61in /  1002.6hPa WSW 3.3mph /  5.3km/h 5mph /  8km/h 88% 0.00in /  0mm 0 W/m2
20:59 39.7 °F /  4.3 °C 36.5 °F /  2.5 °C 29.61in /  1002.6hPa WSW 2.5mph /  4km/h 6mph /  9.7km/h 88% 0.00in /  0mm 0 W/m2
21:04 39.6 °F /  4.2 °C 36.3 °F /  2.4 °C 29.61in /  1002.6hPa WSW 2mph /  3.2km/h 5mph /  8km/h 88% 0.00in /  0mm 0 W/m2
21:09 39.5 °F /  4.2 °C 36.2 °F /  2.3 °C 29.61in /  1002.6hPa WSW 2.5mph /  4km/h 5mph /  8km/h 88% 0.00in /  0mm 0 W/m2
21:14 39.4 °F /  4.1 °C 36.1 °F /  2.3 °C 29.61in /  1002.6hPa West 2.3mph /  3.7km/h 8mph /  12.9km/h 88% 0.00in /  0mm 0 W/m2
21:19 39.2 °F /  4 °C 36 °F /  2.2 °C 29.61in /  1002.6hPa WSW 3.2mph /  5.1km/h 8mph /  12.9km/h 88% 0.00in /  0mm 0 W/m2
21:24 39.1 °F /  3.9 °C 35.8 °F /  2.1 °C 29.61in /  1002.6hPa WSW 3.2mph /  5.1km/h 9mph /  14.5km/h 87.6% 0.00in /  0mm 0 W/m2
21:29 39 °F /  3.9 °C 35.4 °F /  1.9 °C 29.61in /  1002.6hPa SW 3.9mph /  6.3km/h 9mph /  14.5km/h 87% 0.00in /  0mm 0 W/m2
21:34 39 °F /  3.9 °C 35.4 °F /  1.9 °C 29.61in /  1002.6hPa SW 3.9mph /  6.3km/h 9mph /  14.5km/h 87% 0.00in /  0mm 0 W/m2
21:39 39 °F /  3.9 °C 35.4 °F /  1.9 °C 29.60in /  1002.3hPa WSW 4.4mph /  7.1km/h 8mph /  12.9km/h 87% 0.00in /  0mm 0 W/m2
21:44 39 °F /  3.9 °C 35.4 °F /  1.9 °C 29.61in /  1002.6hPa SW 4.2mph /  6.8km/h 9mph /  14.5km/h 87% 0.00in /  0mm 0 W/m2
21:49 39 °F /  3.9 °C 35.3 °F /  1.8 °C 29.60in /  1002.3hPa SW 2.3mph /  3.7km/h 6mph /  9.7km/h 86.4% 0.00in /  0mm 0 W/m2
21:54 39 °F /  3.9 °C 35.2 °F /  1.8 °C 29.60in /  1002.3hPa SW 3.6mph /  5.8km/h 8mph /  12.9km/h 86% 0.00in /  0mm 0 W/m2
21:59 39 °F /  3.9 °C 35.2 °F /  1.8 °C 29.60in /  1002.3hPa SW 3.5mph /  5.6km/h 6mph /  9.7km/h 86% 0.00in /  0mm 0 W/m2
22:04 38.8 °F /  3.8 °C 35.1 °F /  1.7 °C 29.60in /  1002.3hPa SSW 2.6mph /  4.2km/h 6mph /  9.7km/h 86% 0.00in /  0mm 0 W/m2
22:09 38.8 °F /  3.8 °C 35.1 °F /  1.7 °C 29.60in /  1002.3hPa SSW 1.9mph /  3.1km/h 5mph /  8km/h 86% 0.00in /  0mm 0 W/m2
22:14 38.7 °F /  3.7 °C 34.9 °F /  1.6 °C 29.59in /  1001.9hPa SSW 2mph /  3.2km/h 4mph /  6.4km/h 86% 0.00in /  0mm 0 W/m2
22:19 38.6 °F /  3.7 °C 34.8 °F /  1.6 °C 29.59in /  1001.9hPa South 1.8mph /  2.9km/h 6mph /  9.7km/h 86% 0.00in /  0mm 0 W/m2
22:24 38.5 °F /  3.6 °C 34.7 °F /  1.5 °C 29.59in /  1001.9hPa SSW 2.3mph /  3.7km/h 7mph /  11.3km/h 86% 0.00in /  0mm 0 W/m2
22:29 38.3 °F /  3.5 °C 34.5 °F /  1.4 °C 29.59in /  1001.9hPa SSW 3.7mph /  6km/h 8mph /  12.9km/h 86% 0.00in /  0mm 0 W/m2
22:34 38.3 °F /  3.5 °C 34.5 °F /  1.4 °C 29.59in /  1001.9hPa SSW 3.7mph /  6km/h 7mph /  11.3km/h 86% 0.00in /  0mm 0 W/m2
22:39 38.1 °F /  3.4 °C 34.3 °F /  1.3 °C 29.59in /  1001.9hPa South 3.1mph /  5km/h 9mph /  14.5km/h 86% 0.00in /  0mm 0 W/m2
22:44 38.1 °F /  3.4 °C 34.3 °F /  1.3 °C 29.59in /  1001.9hPa South 4mph /  6.4km/h 9mph /  14.5km/h 86% 0.00in /  0mm 0 W/m2
22:49 37.9 °F /  3.3 °C 34.2 °F /  1.2 °C 29.59in /  1001.9hPa SSW 4mph /  6.4km/h 10mph /  16.1km/h 86% 0.00in /  0mm 0 W/m2
22:54 37.9 °F /  3.3 °C 34.3 °F /  1.3 °C 29.59in /  1001.9hPa SSW 2.5mph /  4km/h 7mph /  11.3km/h 86.6% 0.00in /  0mm 0 W/m2
22:59 37.9 °F /  3.3 °C 34.2 °F /  1.2 °C 29.58in /  1001.6hPa SW 3.3mph /  5.3km/h 7mph /  11.3km/h 86.4% 0.00in /  0mm 0 W/m2
23:04 37.8 °F /  3.2 °C 34.2 °F /  1.2 °C 29.58in /  1001.6hPa SSW 2.9mph /  4.7km/h 6mph /  9.7km/h 87% 0.00in /  0mm 0 W/m2
23:09 37.8 °F /  3.2 °C 34.2 °F /  1.2 °C 29.58in /  1001.6hPa SSW 5.6mph /  9km/h 9mph /  14.5km/h 87% 0.00in /  0mm 0 W/m2
23:14 37.8 °F /  3.2 °C 34.2 °F /  1.2 °C 29.58in /  1001.6hPa SSW 4.7mph /  7.6km/h 7mph /  11.3km/h 87% 0.00in /  0mm 0 W/m2
23:19 37.9 °F /  3.3 °C 34.3 °F /  1.3 °C 29.58in /  1001.6hPa South 4.8mph /  7.7km/h 11mph /  17.7km/h 87% 0.00in /  0mm 0 W/m2
23:24 37.9 °F /  3.3 °C 34.3 °F /  1.3 °C 29.57in /  1001.2hPa SSW 6mph /  9.7km/h 11mph /  17.7km/h 87% 0.00in /  0mm 0 W/m2
23:29 37.9 °F /  3.3 °C 34.3 °F /  1.3 °C 29.57in /  1001.2hPa SSW 5.3mph /  8.5km/h 13mph /  20.9km/h 87% 0.00in /  0mm 0 W/m2
23:34 37.8 °F /  3.2 °C 34.2 °F /  1.2 °C 29.57in /  1001.2hPa South 3.5mph /  5.6km/h 7mph /  11.3km/h 87% 0.00in /  0mm 0 W/m2
23:39 37.8 °F /  3.2 °C 34.2 °F /  1.2 °C 29.57in /  1001.2hPa SSW 4.7mph /  7.6km/h 10mph /  16.1km/h 87% 0.00in /  0mm 0 W/m2
23:44 37.6 °F /  3.1 °C 34 °F /  1.1 °C 29.57in /  1001.2hPa SSW 5.9mph /  9.5km/h 10mph /  16.1km/h 87% 0.00in /  0mm 0 W/m2
23:49 37.6 °F /  3.1 °C 34 °F /  1.1 °C 29.57in /  1001.2hPa South 4.9mph /  7.9km/h 10mph /  16.1km/h 87% 0.00in /  0mm 0 W/m2
23:54 37.5 °F /  3.1 °C 33.9 °F /  1.1 °C 29.57in /  1001.2hPa SSW 5.6mph /  9km/h 10mph /  16.1km/h 87% 0.00in /  0mm 0 W/m2
23:59 37.3 °F /  2.9 °C 33.8 °F /  1 °C 29.56in /  1000.9hPa SSW 5.6mph /  9km/h 10mph /  16.1km/h 87% 0.00in /  0mm 0 W/m2
Bath Spa Weather
Compliments of Weather Underground - 2 mb